Celebrity Equinox — 9HXD9 — position and weather

sailwx.info

Track history (hours):
 
Tides and Currents Weather Stations Pressure Air Temp Water Temp Dewpoint Dewpoint Depression Visibility Wind Speed Wind Dir Waves Ship Positions

Celebrity Equinox

Last reported at 2016-Apr-30 19:12 UTC. Time now 2016-May-01 00:20 UTC.
Position N 38°55' E 003°42'.

Length 316 m; draft 8.6 m.

Type: Passenger vessel. MMSI: 249667000.

Date/timePositionNaut miles runAvg speedWind from/ knotsBaromVisibWave heightAir tempDewpointWater temp
2016-Apr-30 19:12N 38°55' E 003°42'1117.6
2016-Apr-30 18:33N 38°58' E 003°27'1818.0
2016-Apr-30 17:34N 39°02' E 003°05'1717.4
2016-Apr-30 16:33N 39°11' E 002°46'1817.7
2016-Apr-30 15:33N 39°28' E 002°40'6 5.5
2016-Apr-30 14:33N 39°33' E 002°38'0 0.0
2016-Apr-30 13:33N 39°33' E 002°38'0 0.0
2016-Apr-30 12:32N 39°33' E 002°38'0 0.0
2016-Apr-30 11:32N 39°33' E 002°38'0 0.0
2016-Apr-30 10:31N 39°33' E 002°38'0 0.0
2016-Apr-30 09:28N 39°33' E 002°38'0 0.0
2016-Apr-30 08:33N 39°33' E 002°38'0 0.0
2016-Apr-30 07:31N 39°33' E 002°38'0 0.0
2016-Apr-30 06:30N 39°33' E 002°38'0 0.0
2016-Apr-30 05:33N 39°33' E 002°38'4 3.5
2016-Apr-30 04:33N 39°30' E 002°37'7 7.3
2016-Apr-30 03:33N 39°25' E 002°30'6 6.3
2016-Apr-30 02:33N 39°28' E 002°23'10 9.6
2016-Apr-30 01:31N 39°35' E 002°15'1212.2
2016-Apr-30 00:33N 39°47' E 002°14'1212.2
2016-Apr-29 23:33N 39°60' E 002°13'1312.5
2016-Apr-29 22:33N 40°12' E 002°12'1212.0
2016-Apr-29 21:33N 40°24' E 002°13'1111.5
2016-Apr-29 20:33N 40°35' E 002°13'1111.3
2016-Apr-29 19:33N 40°47' E 002°12'1111.3
2016-Apr-29 18:33N 40°58' E 002°13'22 1.2
2016-Apr-29 00:17N 40°45' E 001°49'1216.1
2016-Apr-28 23:32N 40°35' E 001°42'1616.4
2016-Apr-28 22:33N 40°20' E 001°32'2019.7
2016-Apr-28 21:33N 40°03' E 001°20'139 8.7
2016-Apr-28 05:30N 38°09' W 000°24'1718.0
2016-Apr-28 04:33N 37°53' W 000°28'1817.9
2016-Apr-28 03:33N 37°35' W 000°30'2118.1
2016-Apr-28 02:24N 37°21' W 000°49'1618.1
2016-Apr-28 01:32N 37°10' W 001°03'211 8.4
2016-Apr-27 00:27N 36°01' W 005°12'164 7.1
2016-Apr-26 01:29N 36°31' W 008°32'1920.3
2016-Apr-26 00:33N 36°31' W 008°55'2019.8
2016-Apr-25 23:33N 36°35' W 009°19'2019.8
2016-Apr-25 22:33N 36°51' W 009°34'2121.2
2016-Apr-25 21:33N 37°13' W 009°34'2020.0
2016-Apr-25 20:33N 37°32' W 009°27'2020.4
2016-Apr-25 19:33N 37°52' W 009°29'2120.9
2016-Apr-25 18:33N 38°13' W 009°26'2120.8
2016-Apr-25 17:33N 38°33' W 009°23'1212.4
2016-Apr-25 16:33N 38°41' W 009°11'3 2.8
2016-Apr-25 15:30N 38°43' W 009°08'0 0.0
2016-Apr-25 14:33N 38°43' W 009°08'0 0.0
2016-Apr-25 13:32N 38°43' W 009°08'0 0.0
2016-Apr-25 12:32N 38°43' W 009°08'0 0.0
2016-Apr-25 11:32N 38°43' W 009°08'0 0.0
2016-Apr-25 10:31N 38°43' W 009°08'0 0.0
2016-Apr-25 09:31N 38°43' W 009°08'0 0.0
2016-Apr-25 08:33N 38°43' W 009°08'0 0.0
2016-Apr-25 07:33N 38°43' W 009°08'0 0.0
2016-Apr-25 06:29N 38°43' W 009°08'0 0.1
2016-Apr-25 05:33N 38°42' W 009°08'9 8.7
2016-Apr-25 04:33N 38°40' W 009°18'1212.4
2016-Apr-25 03:33N 38°33' W 009°32'1212.1
2016-Apr-25 02:33N 38°29' W 009°46'1212.1
2016-Apr-25 01:33N 38°28' W 010°01'1212.1
2016-Apr-25 00:33N 38°28' W 010°17'1212.0
2016-Apr-24 23:33N 38°27' W 010°32'1211.6
2016-Apr-24 22:33N 38°27' W 010°47'1111.4
2016-Apr-24 21:33N 38°26' W 011°01'1211.3
2016-Apr-24 20:29N 38°25' W 011°17'1111.4
2016-Apr-24 19:31N 38°24' W 011°31'1311.6
2016-Apr-24 18:26N 38°23' W 011°47'56713.5
2016-Apr-23 00:19N 37°46' W 023°46'1215.9
2016-Apr-22 23:33N 37°45' W 024°01'1615.8
2016-Apr-22 22:33N 37°44' W 024°21'1615.5
2016-Apr-22 21:33N 37°43' W 024°41'1515.4
2016-Apr-22 20:33N 37°42' W 025°00'1615.6
2016-Apr-22 19:33N 37°40' W 025°20'1414.2
2016-Apr-22 18:33N 37°42' W 025°38'3 2.5
2016-Apr-22 17:29N 37°44' W 025°40'0 0.0
2016-Apr-22 16:31N 37°44' W 025°40'0 0.0
2016-Apr-22 15:33N 37°44' W 025°40'0 0.0
2016-Apr-22 14:33N 37°44' W 025°40'0 0.0
2016-Apr-22 13:31N 37°44' W 025°40'0 0.0
2016-Apr-22 12:33N 37°44' W 025°40'0 0.0
2016-Apr-22 11:33N 37°44' W 025°40'0 0.0
2016-Apr-22 10:32N 37°44' W 025°40'0 0.0
2016-Apr-22 09:31N 37°44' W 025°40'0 0.0
2016-Apr-22 08:33N 37°44' W 025°40'5 4.9
2016-Apr-22 07:33N 37°42' W 025°45'1616.0
2016-Apr-22 06:34N 37°41' W 026°05'1717.1
2016-Apr-22 05:33N 37°41' W 026°27'1717.2
2016-Apr-22 04:33N 37°41' W 026°49'1716.6
2016-Apr-22 03:33N 37°41' W 027°10'1616.2
2016-Apr-22 02:33N 37°42' W 027°30'1616.4
2016-Apr-22 01:33N 37°43' W 027°51'1616.0
2016-Apr-22 00:33N 37°43' W 028°11'1616.3
2016-Apr-21 23:34N 37°44' W 028°32'1817.4
2016-Apr-21 22:33N 37°44' W 028°54'1817.5
2016-Apr-21 21:33N 37°45' W 029°16'1717.1
2016-Apr-21 20:33N 37°45' W 029°37'1716.7
2016-Apr-21 19:33N 37°46' W 029°59'  
Track history (hours):
 
Tides and Currents Weather Stations Pressure Air Temp Water Temp Dewpoint Dewpoint Depression Visibility Wind Speed Wind Dir Waves Ship Positions

Celebrity Equinox

Last reported at 2016-Apr-30 19:12 UTC. Time now 2016-May-01 00:20 UTC.
Position N 38°55' E 003°42'.

Length 316 m; draft 8.6 m.

Type: Passenger vessel. MMSI: 249667000.

Date/timePositionNaut miles runAvg speedWind from/ knotsBaromVisibWave heightAir tempDewpointWater temp
2016-Apr-30 19:12N 38°55' E 003°42'1117.6
2016-Apr-30 18:33N 38°58' E 003°27'1818.0
2016-Apr-30 17:34N 39°02' E 003°05'1717.4
2016-Apr-30 16:33N 39°11' E 002°46'1817.7
2016-Apr-30 15:33N 39°28' E 002°40'6 5.5
2016-Apr-30 14:33N 39°33' E 002°38'0 0.0
2016-Apr-30 13:33N 39°33' E 002°38'0 0.0
2016-Apr-30 12:32N 39°33' E 002°38'0 0.0
2016-Apr-30 11:32N 39°33' E 002°38'0 0.0
2016-Apr-30 10:31N 39°33' E 002°38'0 0.0
2016-Apr-30 09:28N 39°33' E 002°38'0 0.0
2016-Apr-30 08:33N 39°33' E 002°38'0 0.0
2016-Apr-30 07:31N 39°33' E 002°38'0 0.0
2016-Apr-30 06:30N 39°33' E 002°38'0 0.0
2016-Apr-30 05:33N 39°33' E 002°38'4 3.5
2016-Apr-30 04:33N 39°30' E 002°37'7 7.3
2016-Apr-30 03:33N 39°25' E 002°30'6 6.3
2016-Apr-30 02:33N 39°28' E 002°23'10 9.6
2016-Apr-30 01:31N 39°35' E 002°15'1212.2
2016-Apr-30 00:33N 39°47' E 002°14'1212.2
2016-Apr-29 23:33N 39°60' E 002°13'1312.5
2016-Apr-29 22:33N 40°12' E 002°12'1212.0
2016-Apr-29 21:33N 40°24' E 002°13'1111.5
2016-Apr-29 20:33N 40°35' E 002°13'1111.3
2016-Apr-29 19:33N 40°47' E 002°12'1111.3
2016-Apr-29 18:33N 40°58' E 002°13'22 1.2
2016-Apr-29 00:17N 40°45' E 001°49'1216.1
2016-Apr-28 23:32N 40°35' E 001°42'1616.4
2016-Apr-28 22:33N 40°20' E 001°32'2019.7
2016-Apr-28 21:33N 40°03' E 001°20'139 8.7
2016-Apr-28 05:30N 38°09' W 000°24'1718.0
2016-Apr-28 04:33N 37°53' W 000°28'1817.9
2016-Apr-28 03:33N 37°35' W 000°30'2118.1
2016-Apr-28 02:24N 37°21' W 000°49'1618.1
2016-Apr-28 01:32N 37°10' W 001°03'211 8.4
2016-Apr-27 00:27N 36°01' W 005°12'164 7.1
2016-Apr-26 01:29N 36°31' W 008°32'1920.3
2016-Apr-26 00:33N 36°31' W 008°55'2019.8
2016-Apr-25 23:33N 36°35' W 009°19'2019.8
2016-Apr-25 22:33N 36°51' W 009°34'2121.2
2016-Apr-25 21:33N 37°13' W 009°34'2020.0
2016-Apr-25 20:33N 37°32' W 009°27'2020.4
2016-Apr-25 19:33N 37°52' W 009°29'2120.9
2016-Apr-25 18:33N 38°13' W 009°26'2120.8
2016-Apr-25 17:33N 38°33' W 009°23'1212.4
2016-Apr-25 16:33N 38°41' W 009°11'3 2.8
2016-Apr-25 15:30N 38°43' W 009°08'0 0.0
2016-Apr-25 14:33N 38°43' W 009°08'0 0.0
2016-Apr-25 13:32N 38°43' W 009°08'0 0.0
2016-Apr-25 12:32N 38°43' W 009°08'0 0.0
2016-Apr-25 11:32N 38°43' W 009°08'0 0.0
2016-Apr-25 10:31N 38°43' W 009°08'0 0.0
2016-Apr-25 09:31N 38°43' W 009°08'0 0.0
2016-Apr-25 08:33N 38°43' W 009°08'0 0.0
2016-Apr-25 07:33N 38°43' W 009°08'0 0.0
2016-Apr-25 06:29N 38°43' W 009°08'0 0.1
2016-Apr-25 05:33N 38°42' W 009°08'9 8.7
2016-Apr-25 04:33N 38°40' W 009°18'1212.4
2016-Apr-25 03:33N 38°33' W 009°32'1212.1
2016-Apr-25 02:33N 38°29' W 009°46'1212.1
2016-Apr-25 01:33N 38°28' W 010°01'1212.1
2016-Apr-25 00:33N 38°28' W 010°17'1212.0
2016-Apr-24 23:33N 38°27' W 010°32'1211.6
2016-Apr-24 22:33N 38°27' W 010°47'1111.4
2016-Apr-24 21:33N 38°26' W 011°01'1211.3
2016-Apr-24 20:29N 38°25' W 011°17'1111.4
2016-Apr-24 19:31N 38°24' W 011°31'1311.6
2016-Apr-24 18:26N 38°23' W 011°47'56713.5
2016-Apr-23 00:19N 37°46' W 023°46'1215.9
2016-Apr-22 23:33N 37°45' W 024°01'1615.8
2016-Apr-22 22:33N 37°44' W 024°21'1615.5
2016-Apr-22 21:33N 37°43' W 024°41'1515.4
2016-Apr-22 20:33N 37°42' W 025°00'1615.6
2016-Apr-22 19:33N 37°40' W 025°20'1414.2
2016-Apr-22 18:33N 37°42' W 025°38'3 2.5
2016-Apr-22 17:29N 37°44' W 025°40'0 0.0
2016-Apr-22 16:31N 37°44' W 025°40'0 0.0
2016-Apr-22 15:33N 37°44' W 025°40'0 0.0
2016-Apr-22 14:33N 37°44' W 025°40'0 0.0
2016-Apr-22 13:31N 37°44' W 025°40'0 0.0
2016-Apr-22 12:33N 37°44' W 025°40'0 0.0
2016-Apr-22 11:33N 37°44' W 025°40'0 0.0
2016-Apr-22 10:32N 37°44' W 025°40'0 0.0
2016-Apr-22 09:31N 37°44' W 025°40'0 0.0
2016-Apr-22 08:33N 37°44' W 025°40'5 4.9
2016-Apr-22 07:33N 37°42' W 025°45'1616.0
2016-Apr-22 06:34N 37°41' W 026°05'1717.1
2016-Apr-22 05:33N 37°41' W 026°27'1717.2
2016-Apr-22 04:33N 37°41' W 026°49'1716.6
2016-Apr-22 03:33N 37°41' W 027°10'1616.2
2016-Apr-22 02:33N 37°42' W 027°30'1616.4
2016-Apr-22 01:33N 37°43' W 027°51'1616.0
2016-Apr-22 00:33N 37°43' W 028°11'1616.3
2016-Apr-21 23:34N 37°44' W 028°32'1817.4
2016-Apr-21 22:33N 37°44' W 028°54'1817.5
2016-Apr-21 21:33N 37°45' W 029°16'1717.1
2016-Apr-21 20:33N 37°45' W 029°37'1716.7
2016-Apr-21 19:33N 37°46' W 029°59'  

Dump ship's entire track history